Time;durP1;ratioP1;P1;durP2;ratioP2;P2;SDS_P1;SDS_P2;PMS_P1;PMS_P2;Temp;Humidity;BMP_temperature;BMP_pressure;BME280_temperature;BME280_humidity;BME280_pressure;Samples;Min_cycle;Max_cycle;Signal;HPM_P1;HPM_P2
2024/02/28 00:00:11;;;;;;;20.17;9.00;;;7.50;99.90;;;7.92;58.55;101564.03;4920244;28;101050;-38
2024/02/28 00:02:39;;;;;;;19.97;10.00;;;7.60;99.90;;;7.93;58.16;101561.41;4916931;28;100186;-38
2024/02/28 00:05:06;;;;;;;22.00;9.13;;;7.60;99.90;;;7.93;58.00;101571.91;4925707;28;98502;-37
2024/02/28 00:07:35;;;;;;;21.87;9.53;;;7.60;99.90;;;7.93;57.92;101574.53;4907502;28;99517;-38
2024/02/28 00:10:01;;;;;;;22.27;10.27;;;7.60;99.90;;;7.95;57.20;101578.00;4916784;28;122574;-37
2024/02/28 00:12:29;;;;;;;20.40;9.57;;;7.60;99.90;;;7.92;58.26;101575.41;4905821;28;98603;-37
2024/02/28 00:14:55;;;;;;;19.50;9.60;;;7.60;99.90;;;7.89;57.60;101580.72;4882720;28;99580;-36
2024/02/28 00:17:21;;;;;;;18.43;7.80;;;7.60;99.90;;;7.88;58.22;101584.22;4914401;28;97233;-38
2024/02/28 00:19:49;;;;;;;24.67;9.10;;;7.50;99.90;;;7.87;58.12;101592.13;4925316;28;100949;-38
2024/02/28 00:22:15;;;;;;;19.17;8.90;;;7.60;99.90;;;7.85;58.30;101583.41;4924034;28;97763;-38
2024/02/28 00:24:41;;;;;;;15.50;8.17;;;7.50;99.90;;;7.86;58.05;101580.75;4903829;28;99516;-36
2024/02/28 00:27:12;;;;;;;24.30;9.80;;;7.50;99.90;;;7.86;58.26;101591.25;4891633;28;97434;-36
2024/02/28 00:29:38;;;;;;;16.87;8.20;;;7.60;99.90;;;7.90;58.87;101598.22;4883241;28;98090;-36
2024/02/28 00:32:09;;;;;;;21.77;9.17;;;7.60;99.90;;;7.93;58.38;101598.19;4866567;28;101556;-37
2024/02/28 00:34:35;;;;;;;22.70;8.87;;;7.60;99.90;;;7.92;58.15;101593.81;4881716;28;107341;-38
2024/02/28 00:37:00;;;;;;;22.63;8.93;;;7.60;99.90;;;7.96;58.50;101603.44;4886177;28;98632;-38
2024/02/28 00:39:26;;;;;;;17.10;8.57;;;7.60;99.90;;;7.94;58.18;101594.66;4925474;28;100215;-36
2024/02/28 00:41:52;;;;;;;18.13;8.33;;;7.60;99.90;;;7.93;59.02;101598.19;4910133;28;98893;-37
2024/02/28 00:44:18;;;;;;;20.27;9.43;;;7.60;99.90;;;7.89;58.18;101606.97;4903759;28;98675;-38
2024/02/28 00:46:44;;;;;;;21.77;9.50;;;7.60;99.90;;;7.88;59.19;101609.63;4883651;28;98013;-37
2024/02/28 00:49:12;;;;;;;18.07;8.43;;;7.50;99.90;;;7.88;58.67;101600.00;4892076;28;120202;-37
2024/02/28 00:51:38;;;;;;;20.93;9.33;;;7.60;99.90;;;7.92;58.71;101599.06;4917980;28;100427;-36
2024/02/28 00:54:04;;;;;;;20.20;9.70;;;7.60;99.90;;;7.94;58.24;101599.91;4952797;28;104653;-37
2024/02/28 00:56:30;;;;;;;26.60;10.83;;;7.60;99.90;;;7.95;58.86;101599.03;4950740;28;112195;-37
2024/02/28 00:58:56;;;;;;;20.43;9.53;;;7.60;99.90;;;7.97;59.52;101589.41;4960424;28;114863;-36
2024/02/28 01:01:23;;;;;;;23.03;9.63;;;7.70;99.90;;;8.09;59.42;101592.75;4963202;28;126985;-37
2024/02/28 01:03:51;;;;;;;23.73;10.87;;;7.80;99.90;;;8.15;58.94;101597.97;4945942;28;98210;-37
2024/02/28 01:06:17;;;;;;;20.73;9.30;;;7.80;99.90;;;8.27;59.03;101592.59;4963322;28;99421;-36
2024/02/28 01:08:43;;;;;;;23.90;10.10;;;7.90;99.90;;;8.26;57.92;101599.59;4929608;28;99278;-37
2024/02/28 01:11:08;;;;;;;25.47;11.17;;;8.00;99.90;;;8.19;58.93;101599.69;4951240;28;98011;-36
2024/02/28 01:13:34;;;;;;;21.87;11.03;;;7.90;99.90;;;8.19;59.10;101594.41;4952335;28;97732;-36
2024/02/28 01:16:00;;;;;;;22.93;9.83;;;7.90;99.90;;;8.20;59.68;101583.00;4939802;28;105753;-36
2024/02/28 01:18:28;;;;;;;24.80;10.33;;;8.00;99.90;;;8.20;59.32;101580.38;4961658;28;100246;-36
2024/02/28 01:20:54;;;;;;;29.90;10.30;;;7.90;99.90;;;8.23;59.59;101580.34;4955300;28;99475;-36
2024/02/28 01:23:19;;;;;;;22.57;10.50;;;7.90;99.90;;;8.28;59.29;101586.44;4955986;28;116954;-36
2024/02/28 01:25:45;;;;;;;22.87;10.00;;;8.00;99.90;;;8.29;59.01;101585.53;4945104;28;97617;-34
2024/02/28 01:28:16;;;;;;;25.20;11.27;;;8.00;99.90;;;8.30;59.10;101587.28;4948126;28;123193;-39
2024/02/28 01:30:41;;;;;;;22.43;9.97;;;8.00;99.90;;;8.31;59.16;101583.78;4957345;28;97066;-38
2024/02/28 01:33:07;;;;;;;26.53;11.17;;;8.10;99.90;;;8.25;59.75;101584.72;4950923;28;113548;-36
2024/02/28 01:35:33;;;;;;;22.40;10.00;;;8.00;99.90;;;8.28;60.23;101575.94;4953610;28;97764;-35
2024/02/28 01:38:01;;;;;;;22.87;10.90;;;8.00;99.90;;;8.33;60.56;101588.13;4947308;28;126872;-36
2024/02/28 01:40:30;;;;;;;22.90;10.07;;;8.10;99.90;;;8.38;60.09;101590.72;4952684;28;100475;-36
2024/02/28 01:43:11;;;;;;;26.40;11.53;;;8.10;99.90;;;8.44;59.85;101589.78;4938554;28;97400;-38
2024/02/28 01:45:37;;;;;;;24.70;10.13;;;8.20;99.90;;;8.49;59.94;101594.09;4958889;28;100518;-38
2024/02/28 01:48:13;;;;;;;25.63;11.03;;;8.20;99.90;;;8.54;60.03;101594.94;4949530;28;101744;-36
2024/02/28 01:50:39;;;;;;;24.00;10.17;;;8.30;99.90;;;8.81;63.63;101584.91;4953072;28;99295;-37
2024/02/28 01:53:13;;;;;;;26.30;11.23;;;8.40;99.90;;;9.06;60.03;101575.78;4940500;28;104589;-35
2024/02/28 01:55:40;;;;;;;28.13;12.63;;;8.60;99.90;;;8.97;58.66;101575.94;4935407;28;99009;-36
2024/02/28 01:58:10;;;;;;;26.90;11.03;;;8.60;99.90;;;8.90;58.73;101590.06;4960353;28;98190;-37
2024/02/28 02:00:37;;;;;;;21.50;9.97;;;8.50;99.90;;;8.99;59.77;101584.69;4957843;28;98152;-37
2024/02/28 02:03:04;;;;;;;23.40;10.53;;;8.60;99.90;;;9.05;59.45;101589.84;4945064;28;97791;-37
2024/02/28 02:05:30;;;;;;;24.17;10.87;;;8.70;99.90;;;9.01;58.71;101590.78;4908624;28;105295;-37
2024/02/28 02:08:01;;;;;;;23.50;11.50;;;8.70;99.90;;;8.95;58.71;101588.22;4941424;28;123665;-47
2024/02/28 02:10:28;;;;;;;31.73;12.40;;;8.60;99.90;;;8.89;59.44;101590.94;4945994;28;99271;-42
2024/02/28 02:12:54;;;;;;;25.63;10.47;;;8.60;99.90;;;8.85;59.48;101597.16;4949348;28;110085;-38
2024/02/28 02:15:19;;;;;;;26.67;11.87;;;8.50;99.90;;;8.80;59.87;101588.44;4952791;28;97425;-37
2024/02/28 02:17:45;;;;;;;32.00;12.30;;;8.50;99.90;;;8.76;59.12;101592.88;4929293;28;100000;-39
2024/02/28 02:20:15;;;;;;;29.97;12.57;;;8.50;99.90;;;8.72;59.77;101580.66;4910144;28;127934;-37
2024/02/28 02:22:46;;;;;;;32.43;11.80;;;8.40;99.90;;;8.77;60.95;101577.97;4908293;28;97535;-36
2024/02/28 02:25:15;;;;;;;26.97;11.73;;;8.50;99.90;;;8.84;60.15;101591.03;4937197;28;97532;-37
2024/02/28 02:27:41;;;;;;;28.50;11.10;;;8.50;99.90;;;8.83;59.93;101584.03;4955815;28;126703;-37
2024/02/28 02:30:12;;;;;;;30.77;11.87;;;8.60;99.90;;;8.81;59.46;101590.16;4903773;28;113312;-36
2024/02/28 02:32:41;;;;;;;29.60;12.60;;;8.50;99.90;;;8.79;60.74;101581.44;4949287;28;97439;-36
2024/02/28 02:35:10;;;;;;;33.93;11.50;;;8.50;99.90;;;8.78;59.76;101595.47;4925530;28;101491;-37
2024/02/28 02:37:40;;;;;;;28.00;11.53;;;8.50;99.90;;;8.78;60.88;101590.22;4853303;28;121103;-37
2024/02/28 02:40:10;;;;;;;24.33;10.97;;;8.50;99.90;;;8.84;59.54;101580.50;4908304;28;99226;-37
2024/02/28 02:42:36;;;;;;;26.20;10.63;;;8.60;99.90;;;8.85;59.62;101591.91;4894996;28;98906;-38
2024/02/28 02:45:04;;;;;;;24.67;11.10;;;8.50;99.90;;;8.84;60.91;101574.38;4929107;28;113502;-36
2024/02/28 02:47:30;;;;;;;28.60;12.60;;;8.50;99.90;;;8.88;60.14;101583.94;4878314;28;103225;-37
2024/02/28 02:50:08;;;;;;;25.27;12.27;;;8.60;99.90;;;8.90;60.53;101576.91;4939672;28;105291;-37
2024/02/28 02:52:42;;;;;;;29.27;12.03;;;8.60;99.90;;;8.95;60.81;101594.34;4927883;28;97697;-37
2024/02/28 02:55:22;;;;;;;24.67;11.13;;;8.70;99.90;;;8.93;59.64;101587.38;4823039;28;97734;-37
2024/02/28 02:57:57;;;;;;;29.40;11.33;;;8.70;99.90;;;8.97;60.92;101594.34;4874239;28;107844;-37
2024/02/28 03:00:49;;;;;;;33.80;12.80;;;8.70;99.90;;;9.00;60.02;101596.06;4842514;28;101659;-37
2024/02/28 03:03:15;;;;;;;24.37;10.67;;;8.70;99.90;;;9.03;60.68;101602.16;4888155;28;97911;-39
2024/02/28 03:05:56;;;;;;;32.27;12.93;;;8.80;99.90;;;9.04;60.36;101609.16;4896971;28;112768;-36
2024/02/28 03:08:22;;;;;;;33.67;12.63;;;8.80;99.90;;;9.04;60.05;101611.78;4885138;28;106079;-38
2024/02/28 03:10:51;;;;;;;26.27;11.20;;;8.80;99.90;;;9.01;60.37;101603.94;4940905;28;126127;-37
2024/02/28 03:13:16;;;;;;;27.87;12.20;;;8.80;99.90;;;9.01;59.89;101603.94;4800853;28;97118;-37
2024/02/28 03:15:50;;;;;;;33.40;11.80;;;8.80;99.90;;;8.98;60.59;101597.84;4852450;28;99071;-36
2024/02/28 03:18:16;;;;;;;31.57;12.23;;;8.70;99.90;;;8.95;60.68;101611.91;4921003;28;99401;-37
2024/02/28 03:20:49;;;;;;;28.17;11.97;;;8.70;99.90;;;8.96;60.07;101603.13;4927393;28;98839;-39
2024/02/28 03:23:14;;;;;;;31.23;13.20;;;8.80;99.90;;;8.94;60.04;101597.00;4913191;28;107496;-36
2024/02/28 03:25:52;;;;;;;29.13;12.67;;;8.70;99.90;;;8.94;60.56;101604.91;4889273;28;102771;-38
2024/02/28 03:28:28;;;;;;;28.63;11.40;;;8.70;99.90;;;8.90;59.94;101609.34;4875095;28;99081;-36
2024/02/28 03:30:54;;;;;;;27.80;11.27;;;8.70;99.90;;;8.89;60.78;101604.09;4916298;28;128627;-35
2024/02/28 03:33:19;;;;;;;26.80;11.10;;;8.70;99.90;;;8.88;61.18;101618.16;4908869;28;104588;-35
2024/02/28 03:35:59;;;;;;;31.50;11.70;;;8.70;99.90;;;8.93;60.71;101617.19;4954783;28;97096;-37
2024/02/28 03:38:25;;;;;;;31.13;12.27;;;8.70;99.90;;;8.95;60.36;101619.81;4963152;28;106814;-37
2024/02/28 03:40:54;;;;;;;30.07;11.63;;;8.70;99.90;;;9.00;60.00;101612.72;4928785;28;97272;-37
2024/02/28 03:43:19;;;;;;;22.33;11.27;;;8.80;99.90;;;9.01;60.75;101614.47;4952935;28;97398;-38
2024/02/28 03:45:48;;;;;;;31.67;13.50;;;8.80;99.90;;;9.02;60.99;101616.22;4899920;28;113263;-37
2024/02/28 03:48:14;;;;;;;32.37;11.73;;;8.80;99.90;;;9.03;61.12;101606.53;4924904;28;100358;-37
2024/02/28 03:50:48;;;;;;;27.70;11.67;;;8.80;99.90;;;9.08;60.97;101621.38;4899030;28;103738;-39
2024/02/28 03:53:27;;;;;;;29.50;11.40;;;8.90;99.90;;;9.13;60.43;101619.56;4774238;28;102042;-36
2024/02/28 03:55:53;;;;;;;31.13;12.43;;;8.90;99.90;;;9.14;60.28;101626.56;4870986;28;97470;-36
2024/02/28 03:58:28;;;;;;;28.83;11.90;;;8.90;99.90;;;9.14;60.11;101631.84;4880635;28;99708;-38
2024/02/28 04:00:53;;;;;;;30.17;11.83;;;8.90;99.90;;;9.16;60.24;101634.44;4926355;28;102405;-37
2024/02/28 04:03:26;;;;;;;31.83;12.83;;;8.90;99.90;;;9.18;60.23;101638.78;4920942;28;105531;-37
2024/02/28 04:06:01;;;;;;;30.03;13.30;;;9.00;99.90;;;9.18;60.21;101638.78;4956736;28;116886;-37
2024/02/28 04:08:27;;;;;;;31.97;12.57;;;9.00;99.90;;;9.15;59.64;101633.56;4940155;28;120799;-37
2024/02/28 04:10:55;;;;;;;27.43;12.13;;;8.90;99.90;;;9.10;60.16;101640.63;4849538;28;125616;-36
2024/02/28 04:13:36;;;;;;;31.87;13.30;;;8.90;99.90;;;9.07;60.55;101638.06;4955060;28;97086;-38
2024/02/28 04:16:12;;;;;;;36.70;14.00;;;8.80;99.90;;;9.07;61.16;101645.94;4885864;28;109947;-36
2024/02/28 04:18:37;;;;;;;35.47;13.67;;;8.80;99.90;;;9.13;60.85;101640.63;4942033;28;99599;-36
2024/02/28 04:21:09;;;;;;;41.17;16.03;;;8.90;99.90;;;9.17;60.51;101642.31;4906324;28;122544;-44
2024/02/28 04:23:39;;;;;;;46.60;18.57;;;8.90;99.90;;;9.21;60.15;101651.91;4876566;28;115429;-37
2024/02/28 04:26:07;;;;;;;37.37;17.10;;;9.00;99.90;;;9.31;59.58;101643.88;4787072;28;97669;-42
2024/02/28 04:28:33;;;;;;;44.20;16.73;;;9.10;99.90;;;9.29;59.76;101637.75;4905440;28;128642;-38
2024/02/28 04:31:04;;;;;;;42.90;16.63;;;9.10;99.90;;;9.23;60.08;101638.72;4888520;28;126173;-38
2024/02/28 04:33:30;;;;;;;42.37;17.73;;;9.00;99.90;;;9.21;59.90;101649.25;4946473;28;97264;-38
2024/02/28 04:36:03;;;;;;;41.73;16.90;;;9.00;99.90;;;9.33;60.79;101652.63;4965070;28;97304;-37
2024/02/28 04:38:29;;;;;;;43.37;18.97;;;9.00;99.90;;;9.32;58.89;101645.63;4963348;28;104093;-36
2024/02/28 04:40:55;;;;;;;45.23;16.80;;;9.10;99.90;;;9.29;59.67;101650.94;4908012;28;98625;-36
2024/02/28 04:43:21;;;;;;;45.50;19.03;;;9.10;99.90;;;9.25;59.04;101656.22;4899918;28;104253;-37
2024/02/28 04:45:46;;;;;;;48.17;18.77;;;9.10;99.90;;;9.20;59.40;101655.44;4851112;28;104807;-37
2024/02/28 04:48:13;;;;;;;47.80;20.17;;;9.00;99.90;;;9.14;59.24;101652.91;4943712;28;120241;-36
2024/02/28 04:50:44;;;;;;;45.37;18.27;;;9.00;99.90;;;9.13;59.45;101659.06;4960367;28;100297;-36
2024/02/28 04:53:19;;;;;;;47.77;18.53;;;9.00;99.90;;;9.13;59.28;101659.06;4916471;28;103443;-36
2024/02/28 04:55:44;;;;;;;48.63;18.03;;;9.00;99.90;;;9.17;59.58;101655.47;4961964;28;98554;-37
2024/02/28 04:58:10;;;;;;;49.17;19.57;;;9.00;99.90;;;9.17;59.34;101668.63;4827058;28;101044;-37
2024/02/28 05:00:36;;;;;;;43.33;17.67;;;9.00;99.90;;;9.15;59.96;101670.44;4846565;28;98305;-36
2024/02/28 05:03:07;;;;;;;45.67;17.37;;;9.00;99.90;;;9.17;59.57;101679.16;4917359;28;112862;-36
2024/02/28 05:05:35;;;;;;;47.17;18.63;;;9.00;99.90;;;9.28;59.43;101681.66;4947648;28;97076;-36
2024/02/28 05:08:06;;;;;;;50.23;19.93;;;9.10;99.90;;;9.45;60.43;101665.63;4871658;28;99843;-38
2024/02/28 05:10:34;;;;;;;40.03;18.00;;;9.20;99.90;;;9.41;59.25;101677.09;4847398;28;98472;-36
2024/02/28 05:13:05;;;;;;;46.33;17.20;;;9.20;99.90;;;9.38;59.65;101683.25;4917503;28;97009;-36
2024/02/28 05:15:31;;;;;;;48.30;19.10;;;9.10;99.90;;;9.35;59.76;101682.44;4949153;28;97079;-36
2024/02/28 05:17:56;;;;;;;45.90;17.03;;;9.10;99.90;;;9.34;59.07;101696.50;4967541;28;109550;-36
2024/02/28 05:20:30;;;;;;;43.83;19.20;;;9.10;99.90;;;9.30;59.03;101689.53;4883712;28;124268;-37
2024/02/28 05:23:01;;;;;;;45.90;18.50;;;9.10;99.90;;;9.25;59.75;101686.94;4936333;28;118344;-37
2024/02/28 05:25:29;;;;;;;45.83;17.40;;;9.00;99.90;;;9.22;59.70;101687.84;4787047;28;106460;-37
2024/02/28 05:27:59;;;;;;;47.50;18.47;;;9.00;99.90;;;9.20;58.91;101689.66;4858681;28;126206;-37
2024/02/28 05:30:25;;;;;;;48.87;19.03;;;9.00;99.90;;;9.18;59.59;101694.06;4881871;28;101977;-37
2024/02/28 05:32:51;;;;;;;45.27;17.40;;;9.00;99.90;;;9.19;59.57;101693.19;4843484;28;97572;-38
2024/02/28 05:35:20;;;;;;;46.67;17.43;;;9.00;99.90;;;9.20;59.86;101694.91;4914425;28;107565;-36
2024/02/28 05:37:54;;;;;;;47.37;18.00;;;9.00;99.90;;;9.20;59.78;101700.19;4874471;28;110697;-37
2024/02/28 05:40:20;;;;;;;45.73;17.70;;;9.00;99.90;;;9.22;60.59;101702.78;4913142;28;97597;-37
2024/02/28 05:42:46;;;;;;;42.33;16.60;;;9.00;99.90;;;9.22;58.96;101702.78;4932778;28;97508;-36
2024/02/28 05:45:19;;;;;;;42.83;17.53;;;9.10;99.90;;;9.24;59.08;101706.28;4830609;28;104284;-37
2024/02/28 05:47:44;;;;;;;41.47;16.80;;;9.10;99.90;;;9.21;59.47;101707.19;4850819;28;107653;-38
2024/02/28 05:50:29;;;;;;;43.47;17.63;;;9.10;99.90;;;9.19;59.23;101708.97;4942735;28;123468;-38
2024/02/28 05:53:11;;;;;;;44.93;16.43;;;9.00;99.90;;;9.19;59.57;101708.97;4883482;28;99214;-36
2024/02/28 05:55:37;;;;;;;38.77;15.93;;;9.00;99.90;;;9.25;59.30;101713.28;4864458;28;116734;-37
2024/02/28 05:58:20;;;;;;;45.13;18.57;;;9.10;99.90;;;9.41;59.29;101713.97;4829519;28;118525;-38
2024/02/28 06:01:09;;;;;;;45.00;16.77;;;9.20;99.90;;;9.50;59.54;101713.81;4933838;28;98074;-36
2024/02/28 06:03:52;;;;;;;47.83;17.87;;;9.20;99.90;;;9.49;59.01;101718.22;4908351;28;99729;-36
2024/02/28 06:06:23;;;;;;;48.60;16.70;;;9.20;99.90;;;9.55;58.55;101727.81;4897322;28;97622;-36
2024/02/28 06:08:48;;;;;;;37.67;16.10;;;9.30;99.90;;;9.52;58.87;101728.69;4860148;28;99482;-37
2024/02/28 06:11:14;;;;;;;45.57;17.10;;;9.30;99.90;;;9.51;58.66;101734.00;4894423;28;100395;-36
2024/02/28 06:13:43;;;;;;;42.27;15.97;;;9.30;99.90;;;9.52;58.80;101738.38;4874702;28;105479;-37
2024/02/28 06:16:21;;;;;;;45.77;17.10;;;9.30;99.90;;;9.50;58.95;101741.03;4875523;28;97620;-38
2024/02/28 06:18:51;;;;;;;46.10;17.50;;;9.20;99.90;;;9.47;59.15;101748.09;4917132;28;98935;-37
2024/02/28 06:21:17;;;;;;;50.20;19.00;;;9.20;99.90;;;9.44;58.88;101756.06;4910004;28;126641;-36
2024/02/28 06:24:05;;;;;;;51.70;19.33;;;9.20;99.90;;;9.45;59.02;101749.88;4945304;28;106944;-37
2024/02/28 06:26:41;;;;;;;50.47;18.17;;;9.20;99.90;;;9.45;59.33;101749.88;4879943;28;97247;-38
2024/02/28 06:29:22;;;;;;;45.87;18.33;;;9.20;99.90;;;9.41;59.68;101762.22;4913210;28;108738;-37
2024/02/28 06:31:51;;;;;;;50.33;19.37;;;9.20;99.90;;;9.42;59.88;101763.97;4911867;28;98297;-37
2024/02/28 06:34:24;;;;;;;58.47;20.53;;;9.20;99.90;;;9.41;59.10;101761.38;4834591;28;109500;-36
2024/02/28 06:36:57;;;;;;;55.13;20.03;;;9.20;99.90;;;9.38;59.22;101766.66;4894111;28;97485;-37
2024/02/28 06:39:27;;;;;;;44.73;17.23;;;9.20;99.90;;;9.36;59.47;101761.41;4863001;28;124188;-40
2024/02/28 06:42:08;;;;;;;55.00;18.90;;;9.10;99.90;;;9.25;59.96;101766.81;4800496;28;101837;-37
2024/02/28 06:44:34;;;;;;;48.57;17.63;;;9.10;99.90;;;9.35;59.38;101766.69;4897778;28;97616;-36
2024/02/28 06:46:59;;;;;;;55.50;20.57;;;9.10;99.90;;;9.30;59.04;101773.78;4797120;28;105370;-36
2024/02/28 06:49:25;;;;;;;49.50;17.97;;;9.20;99.90;;;9.30;59.37;101773.78;4886833;28;124014;-37
2024/02/28 06:51:59;;;;;;;50.83;18.73;;;9.20;99.90;;;9.31;59.49;101770.25;4854815;28;97599;-37
2024/02/28 06:54:25;;;;;;;48.07;17.67;;;9.10;99.90;;;9.29;59.59;101764.16;4825748;28;97345;-37
2024/02/28 06:56:58;;;;;;;40.67;17.57;;;9.10;99.90;;;9.28;59.19;101765.03;4913963;28;97437;-37
2024/02/28 06:59:26;;;;;;;40.47;16.37;;;9.20;99.90;;;9.28;59.56;101770.31;4898195;28;118334;-38
2024/02/28 07:01:59;;;;;;;43.10;17.67;;;9.20;99.90;;;9.30;59.71;101764.13;4933824;28;117877;-37
2024/02/28 07:04:24;;;;;;;42.60;16.77;;;9.20;99.90;;;9.28;59.14;101775.56;4930390;28;99618;-36
2024/02/28 07:06:50;;;;;;;40.63;15.67;;;9.20;99.90;;;9.32;59.00;101772.00;4947836;28;112415;-36
2024/02/28 07:09:16;;;;;;;43.10;17.47;;;9.20;99.90;;;9.34;58.96;101770.22;4953586;28;98319;-36
2024/02/28 07:11:42;;;;;;;46.83;16.87;;;9.20;99.90;;;9.34;59.23;101775.50;4918256;28;99236;-36
2024/02/28 07:14:33;;;;;;;43.63;16.23;;;9.20;99.90;;;9.28;58.45;101765.03;4864332;28;105052;-37
2024/02/28 07:17:07;;;;;;;44.23;17.73;;;9.20;99.90;;;9.31;59.41;101776.41;4838138;28;97619;-38
2024/02/28 07:19:37;;;;;;;42.67;17.13;;;9.10;99.90;;;9.36;59.33;101778.97;4905240;28;100594;-36
2024/02/28 07:22:05;;;;;;;59.13;19.87;;;9.20;99.90;;;9.43;59.32;101776.25;4905065;28;99077;-38
2024/02/28 07:24:32;;;;;;;45.50;16.80;;;9.20;99.90;;;9.43;59.18;101775.38;4956570;28;98776;-37
2024/02/28 07:26:58;;;;;;;37.70;15.17;;;9.30;99.90;;;9.85;61.67;101789.72;4880354;28;98409;-37
2024/02/28 07:29:31;;;;;;;48.97;16.93;;;9.40;99.90;;;9.84;57.82;101790.63;4768515;28;126951;-37
2024/02/28 07:32:02;;;;;;;41.03;15.73;;;9.50;99.90;;;9.78;56.99;101799.47;4715801;28;130972;-37
2024/02/28 07:34:28;;;;;;;42.87;16.23;;;9.50;99.90;;;9.76;57.75;101798.63;4909466;28;97344;-36
2024/02/28 07:37:01;;;;;;;42.33;16.33;;;9.50;99.90;;;9.92;60.59;101798.41;4949435;28;97410;-38
2024/02/28 07:39:27;;;;;;;44.97;17.43;;;9.50;99.90;;;9.98;57.67;101800.94;4943432;28;111140;-35
2024/02/28 07:42:18;;;;;;;46.83;18.50;;;9.60;99.90;;;10.08;59.86;101797.25;4833085;28;106145;-37
2024/02/28 07:44:53;;;;;;;40.43;16.47;;;9.60;99.90;;;10.01;57.06;101796.50;4845686;28;99282;-36
2024/02/28 07:47:22;;;;;;;44.20;16.30;;;9.60;99.90;;;10.02;56.72;101797.38;4875880;28;102997;-37
2024/02/28 07:49:48;;;;;;;45.70;17.13;;;9.70;99.90;;;10.14;56.75;101802.47;4864468;28;99570;-37
2024/02/28 07:52:27;;;;;;;42.63;16.17;;;9.70;99.90;;;10.05;56.64;101792.03;4840939;28;98766;-38
2024/02/28 07:54:53;;;;;;;42.43;16.07;;;9.70;99.90;;;10.03;56.68;101799.97;4857544;28;98344;-38
2024/02/28 07:57:28;;;;;;;43.00;17.17;;;9.70;99.90;;;10.01;57.26;101806.19;4780623;28;99807;-36
2024/02/28 07:59:54;;;;;;;41.53;16.27;;;9.70;99.90;;;9.94;56.98;101799.25;4842910;28;102355;-37
2024/02/28 08:02:37;;;;;;;51.43;17.90;;;9.60;99.90;;;9.87;57.52;101800.25;4776461;28;99128;-38
2024/02/28 08:05:07;;;;;;;48.47;18.07;;;9.60;99.90;;;9.79;57.74;101806.47;4607783;28;100087;-38
2024/02/28 08:08:04;;;;;;;42.03;15.03;;;9.50;99.90;;;9.71;57.80;101805.72;4648146;28;99930;-38
2024/02/28 08:10:32;;;;;;;46.13;17.13;;;9.50;99.90;;;9.74;59.43;101808.31;4713928;28;99799;-38
2024/02/28 08:13:18;;;;;;;45.63;18.13;;;9.50;99.90;;;9.80;58.11;101808.22;4621611;28;102481;-38
2024/02/28 08:16:25;;;;;;;49.47;16.50;;;9.60;99.90;;;9.77;58.29;101803.00;4607547;28;97607;-37
2024/02/28 08:19:19;;;;;;;;;;;;;;;;;;;;;
2024/02/28 08:22:16;;;;;;;51.40;17.93;;;9.60;99.90;;;9.72;57.56;101814.50;4591459;28;132483;-37
2024/02/28 08:24:46;;;;;;;45.50;17.83;;;9.50;99.90;;;9.73;58.42;101817.13;4828471;28;101750;-37
2024/02/28 08:27:16;;;;;;;43.30;17.37;;;9.50;99.90;;;10.00;60.99;101828.16;4794147;23;97941;-34
2024/02/28 08:30:01;;;;;;;45.10;15.33;;;9.60;99.90;;;10.12;57.84;101825.31;4874184;28;98689;-36
2024/02/28 08:32:27;;;;;;;43.13;14.73;;;9.80;99.90;;;10.47;59.79;101831.84;4912664;28;102757;-38
2024/02/28 08:34:54;;;;;;;43.87;16.90;;;10.00;99.90;;;10.42;55.94;101835.44;4796559;28;104373;-37
2024/02/28 08:37:26;;;;;;;39.67;16.50;;;10.20;99.90;;;10.28;56.73;101826.88;4773301;28;99179;-35
2024/02/28 08:40:21;;;;;;;51.50;17.80;;;10.10;99.90;;;10.50;55.40;101834.44;4862379;28;99181;-37
2024/02/28 08:43:18;;;;;;;47.93;16.33;;;10.20;99.90;;;10.65;58.78;101836.81;4738221;28;101428;-36
2024/02/28 08:46:17;;;;;;;;;;;;;;;;;;;;;
2024/02/28 08:48:51;;;;;;;41.20;15.20;;;10.70;99.90;;;11.21;53.28;101832.25;4592781;28;118442;-42
2024/02/28 08:51:25;;;;;;;43.87;16.30;;;10.90;99.90;;;11.39;55.97;101837.16;4582231;28;97725;-37
2024/02/28 08:54:47;;;;;;;43.93;15.73;;;10.90;99.90;;;11.13;54.81;101832.38;4703522;28;119917;-36
2024/02/28 08:57:23;;;;;;;48.97;17.30;;;10.70;99.90;;;11.34;53.42;101841.69;4851435;28;103112;-37
2024/02/28 08:59:56;;;;;;;45.50;17.93;;;10.90;99.90;;;11.43;54.82;101838.88;4705236;28;100091;-36
2024/02/28 09:02:31;;;;;;;43.30;16.87;;;10.90;99.90;;;11.28;54.12;101836.50;4820751;28;100708;-37
2024/02/28 09:05:10;;;;;;;43.60;17.93;;;10.80;99.90;;;11.00;54.95;101834.41;4737459;28;130502;-37
2024/02/28 09:08:00;;;;;;;45.13;18.53;;;10.70;99.90;;;10.86;54.99;101836.44;4730367;28;103516;-37
2024/02/28 09:10:42;;;;;;;48.63;17.80;;;10.60;99.90;;;10.87;56.48;101840.81;4600750;28;102348;-40
2024/02/28 09:13:35;;;;;;;;;;;;;;;;;;;;;
2024/02/28 09:16:10;;;;;;;40.23;17.57;;;10.50;99.90;;;10.80;57.44;101852.38;4683780;28;125999;-34
2024/02/28 09:18:56;;;;;;;48.07;16.23;;;10.50;99.90;;;10.89;58.04;101840.78;4666161;28;98272;-35
2024/02/28 09:22:00;;;;;;;48.80;18.93;;;10.50;99.90;;;10.75;55.80;101848.97;4757842;28;100142;-38
2024/02/28 09:24:26;;;;;;;46.17;16.87;;;10.50;99.90;;;10.68;56.35;101852.56;4698263;28;98336;-38
2024/02/28 09:26:54;;;;;;;44.07;16.87;;;10.50;99.90;;;10.79;58.19;101855.91;4662406;28;100838;-36
2024/02/28 09:29:33;;;;;;;43.87;16.63;;;10.40;99.90;;;11.16;55.37;101855.25;4735649;28;106481;-37
2024/02/28 09:32:09;;;;;;;42.00;15.67;;;10.80;99.90;;;11.34;57.48;101857.53;4655446;28;100417;-36
2024/02/28 09:35:10;;;;;;;43.70;17.07;;;10.90;99.90;;;11.52;53.26;101854.50;4677921;28;101409;-36
2024/02/28 09:37:42;;;;;;;50.97;18.37;;;11.30;99.90;;;11.12;54.13;101848.25;4673702;28;102602;-39
2024/02/28 09:40:42;;;;;;;46.97;19.17;;;11.00;99.90;;;10.96;54.24;101853.84;4677547;28;98873;-36
2024/02/28 09:43:40;;;;;;;44.00;17.03;;;10.80;99.90;;;10.82;55.04;101861.13;4761504;28;101437;-34
2024/02/28 09:46:30;;;;;;;48.70;17.67;;;10.60;99.90;;;10.79;55.66;101861.19;4793671;28;100962;-36
2024/02/28 09:49:19;;;;;;;47.27;18.40;;;10.60;99.90;;;10.98;58.29;101859.09;4737884;28;104301;-35
2024/02/28 09:51:58;;;;;;;42.83;17.10;;;10.60;99.90;;;11.03;55.07;101852.84;4697005;28;106475;-36
2024/02/28 09:54:26;;;;;;;46.13;18.57;;;10.80;99.90;;;11.36;54.56;101852.22;4767616;28;99226;-41
2024/02/28 09:57:33;;;;;;;44.10;17.53;;;11.00;99.90;;;11.13;54.20;101855.28;4691207;28;99838;-37
2024/02/28 10:00:46;;;;;;;40.07;17.23;;;10.90;99.90;;;10.88;54.07;101853.13;4729015;28;104827;-36
2024/02/28 10:03:39;;;;;;;43.13;17.87;;;10.80;99.90;;;10.82;55.25;101847.94;4733651;28;107365;-37
2024/02/28 10:06:39;;;;;;;;;;;;;;;;;;;;;
2024/02/28 10:09:29;;;;;;;43.17;15.80;;;10.70;99.90;;;11.07;57.01;101842.22;4585638;28;117065;-35
2024/02/28 10:12:14;;;;;;;36.50;16.43;;;10.80;99.90;;;11.18;54.96;101845.53;4640076;28;100508;-38
2024/02/28 10:14:57;;;;;;;40.33;16.30;;;10.90;99.90;;;11.13;55.18;101842.09;4723490;28;102670;-38
2024/02/28 10:17:51;;;;;;;;;;;;;;;;;;;;;
2024/02/28 10:20:56;;;;;;;;;;;;;;;;;;;;;
2024/02/28 10:26:54;;;;;;;;;;;;;;;;;;;;;
2024/02/28 10:29:56;;;;;;;39.80;15.33;;;11.60;99.90;;;11.66;52.91;101829.56;4683923;28;116801;-35
2024/02/28 10:32:39;;;;;;;35.93;14.43;;;11.60;99.90;;;11.63;53.10;101838.44;4638702;28;120175;-36
2024/02/28 10:35:25;;;;;;;33.80;14.83;;;11.50;99.90;;;11.55;52.68;101838.59;4755627;28;103709;-35
2024/02/28 10:38:13;;;;;;;;;;;;;;;;;;;;;
2024/02/28 10:40:47;;;;;;;32.37;13.03;;;11.70;99.90;;;12.04;54.84;101840.19;4647391;28;117905;-36
2024/02/28 10:43:44;;;;;;;34.10;14.60;;;11.90;99.90;;;12.36;52.02;101835.91;4731102;28;97594;-37
2024/02/28 10:46:30;;;;;;;;;;;;;;;;;;;;;
2024/02/28 10:49:03;;;;;;;30.70;14.33;;;12.20;99.90;;;12.17;51.48;101843.44;4657042;28;129199;-37
2024/02/28 10:52:13;;;;;;;;;;;;;;;;;;;;;